TimeCDT,TemperatureF,Dew PointF,Humidity,Sea Level PressureIn,VisibilityMPH,Wind Direction,Wind SpeedMPH,Gust SpeedMPH,PrecipitationIn,Events,Conditions,WindDirDegrees,DateUTC
12:51 AM,81.0,72.0,74,30.23,10.0,South,4.6,-,N/A,,Partly Cloudy,180,2013-07-16 05:51:00
1:51 AM,79.0,71.1,77,30.24,10.0,South,3.5,-,N/A,,Partly Cloudy,190,2013-07-16 06:51:00
2:51 AM,79.0,71.1,77,30.23,10.0,South,3.5,-,N/A,,Partly Cloudy,180,2013-07-16 07:51:00
3:51 AM,78.1,71.1,79,30.24,10.0,South,3.5,-,N/A,,Scattered Clouds,180,2013-07-16 08:51:00
4:51 AM,78.1,71.1,79,30.25,10.0,SSW,4.6,-,N/A,,Scattered Clouds,200,2013-07-16 09:51:00
5:51 AM,77.0,71.1,82,30.26,10.0,South,4.6,-,0.01,,Scattered Clouds,190,2013-07-16 10:51:00
6:51 AM,78.1,71.1,79,30.27,10.0,SSW,5.8,-,N/A,,Scattered Clouds,200,2013-07-16 11:51:00
7:51 AM,81.0,71.1,72,30.28,10.0,SW,6.9,-,N/A,,Partly Cloudy,230,2013-07-16 12:51:00
8:51 AM,82.9,71.1,67,30.29,10.0,WSW,6.9,-,N/A,,Partly Cloudy,240,2013-07-16 13:51:00
9:51 AM,84.9,72.0,65,30.28,10.0,West,6.9,-,N/A,,Scattered Clouds,270,2013-07-16 14:51:00
10:51 AM,87.1,71.1,59,30.27,10.0,WSW,8.1,-,N/A,,Mostly Cloudy,250,2013-07-16 15:51:00
11:51 AM,89.1,69.1,52,30.27,10.0,SSW,8.1,-,N/A,,Scattered Clouds,210,2013-07-16 16:51:00
12:51 PM,89.1,70.0,53,30.25,10.0,South,6.9,-,N/A,,Mostly Cloudy,190,2013-07-16 17:51:00
1:51 PM,91.0,70.0,50,30.25,10.0,SSW,12.7,-,N/A,,Scattered Clouds,200,2013-07-16 18:51:00
2:51 PM,91.9,69.1,47,30.23,10.0,West,11.5,18.4,N/A,,Mostly Cloudy,260,2013-07-16 19:51:00
3:51 PM,91.9,70.0,48,30.22,10.0,WSW,12.7,-,N/A,,Scattered Clouds,240,2013-07-16 20:51:00
4:51 PM,91.9,70.0,48,30.22,10.0,SW,12.7,-,N/A,,Scattered Clouds,220,2013-07-16 21:51:00
5:51 PM,91.0,70.0,50,30.22,10.0,SW,6.9,16.1,N/A,,Scattered Clouds,230,2013-07-16 22:51:00
6:51 PM,90.0,70.0,52,30.21,10.0,SW,8.1,-,N/A,,Scattered Clouds,220,2013-07-16 23:51:00
7:51 PM,89.1,70.0,53,30.22,10.0,SW,9.2,-,N/A,,Partly Cloudy,230,2013-07-17 00:51:00
8:51 PM,87.1,69.1,55,30.23,10.0,SW,8.1,-,N/A,,Partly Cloudy,230,2013-07-17 01:51:00
9:51 PM,86.0,70.0,59,30.24,10.0,SW,6.9,-,N/A,,Clear,220,2013-07-17 02:51:00
10:51 PM,84.9,70.0,61,30.24,10.0,SW,5.8,-,N/A,,Clear,220,2013-07-17 03:51:00
11:51 PM,82.9,70.0,65,30.25,10.0,SW,5.8,-,N/A,,Clear,220,2013-07-17 04:51:00